Time,TemperatureF,DewpointF,PressureIn,WindDirection,WindDirectionDegrees,WindSpeedMPH,WindSpeedGustMPH,Humidity,HourlyPrecipIn,Conditions,Clouds,dailyrainin,SolarRadiationWatts/m^2,SoftwareType,DateUTC
2013-04-01 00:12:00,64.0,-31.0,-100.00,West,277,31.0,58.0,0,0.00,,,0.00,0.000000,,2013-04-01 10:12:00,
2013-04-01 00:23:00,64.0,-31.0,-100.00,West,277,31.0,58.0,0,0.00,,,0.00,0.000000,,2013-04-01 10:23:00,
2013-04-01 00:33:00,64.0,-31.0,-100.00,West,277,31.0,58.0,0,0.00,,,0.00,0.000000,,2013-04-01 10:33:00,
2013-04-01 00:42:00,64.0,-31.0,-100.00,West,277,31.0,58.0,0,0.00,,,0.00,0.000000,,2013-04-01 10:42:00,
2013-04-01 00:52:00,62.0,-32.0,-100.00,SE,131,34.0,43.0,0,0.00,,,-99.99,0.000000,,2013-04-01 10:52:00,
2013-04-01 01:12:00,62.0,-32.0,-100.00,SE,131,34.0,43.0,0,0.00,,,-99.99,0.000000,,2013-04-01 11:12:00,
2013-04-01 01:22:00,62.0,-32.0,-100.00,SE,131,34.0,43.0,0,0.00,,,-99.99,0.000000,,2013-04-01 11:22:00,
2013-04-01 01:32:00,62.0,-32.0,-100.00,SE,131,34.0,43.0,0,0.00,,,-99.99,0.000000,,2013-04-01 11:32:00,
2013-04-01 01:42:00,62.0,-32.0,-100.00,SE,131,34.0,43.0,0,0.00,,,-99.99,0.000000,,2013-04-01 11:42:00,
2013-04-01 01:52:00,61.0,-33.0,-100.00,South,178,30.0,132.0,0,0.00,,,0.00,0.000000,,2013-04-01 11:52:00,
2013-04-01 02:12:00,61.0,-33.0,-100.00,South,178,30.0,132.0,0,0.00,,,0.00,0.000000,,2013-04-01 12:12:00,
2013-04-01 02:22:00,61.0,-33.0,-100.00,South,178,30.0,132.0,0,0.00,,,0.00,0.000000,,2013-04-01 12:22:00,
2013-04-01 02:32:00,61.0,-33.0,-100.00,South,178,30.0,132.0,0,0.00,,,0.00,0.000000,,2013-04-01 12:32:00,
2013-04-01 02:42:00,61.0,-33.0,-100.00,South,178,30.0,132.0,0,0.00,,,0.00,0.000000,,2013-04-01 12:42:00,
2013-04-01 02:52:00,62.0,-32.0,-100.00,South,181,32.0,55.0,0,0.00,,,0.00,0.000000,,2013-04-01 12:52:00,
2013-04-01 03:12:00,62.0,-32.0,-100.00,South,181,32.0,55.0,0,0.00,,,0.00,0.000000,,2013-04-01 13:12:00,
2013-04-01 03:22:00,62.0,-32.0,-100.00,South,181,32.0,55.0,0,0.00,,,0.00,0.000000,,2013-04-01 13:22:00,
2013-04-01 03:32:00,62.0,-32.0,-100.00,South,181,32.0,55.0,0,0.00,,,0.00,0.000000,,2013-04-01 13:32:00,
2013-04-01 03:42:00,62.0,-32.0,-100.00,South,181,32.0,55.0,0,0.00,,,0.00,0.000000,,2013-04-01 13:42:00,
2013-04-01 03:52:00,63.0,-31.0,-100.00,South,186,34.0,60.0,0,0.00,,,0.00,0.000000,,2013-04-01 13:52:00,
2013-04-01 04:22:00,63.0,-31.0,-100.00,South,186,34.0,60.0,0,0.00,,,0.00,0.000000,,2013-04-01 14:22:00,
2013-04-01 04:32:00,63.0,-31.0,-100.00,South,186,34.0,60.0,0,0.00,,,0.00,0.000000,,2013-04-01 14:32:00,
2013-04-01 04:42:00,63.0,-31.0,-100.00,South,186,34.0,60.0,0,0.00,,,0.00,0.000000,,2013-04-01 14:42:00,
2013-04-01 04:52:00,62.0,-32.0,-100.00,North,356,33.0,58.0,0,0.00,,,0.00,0.000000,,2013-04-01 14:52:00,
2013-04-01 05:12:00,62.0,-32.0,-100.00,North,356,33.0,58.0,0,0.00,,,0.00,0.000000,,2013-04-01 15:12:00,
2013-04-01 05:22:00,62.0,-32.0,-100.00,North,356,33.0,58.0,0,0.00,,,0.00,0.000000,,2013-04-01 15:22:00,
2013-04-01 05:33:00,62.0,-32.0,-100.00,North,356,33.0,58.0,0,0.00,,,0.00,0.000000,,2013-04-01 15:33:00,
2013-04-01 05:43:00,62.0,-32.0,-100.00,North,356,33.0,58.0,0,0.00,,,0.00,0.000000,,2013-04-01 15:43:00,
2013-04-01 05:52:00,62.0,-32.0,-100.00,NNE,27,43.0,132.0,0,0.00,,,0.00,0.000000,,2013-04-01 15:52:00,
2013-04-01 06:23:00,62.0,-32.0,-100.00,NNE,27,43.0,132.0,0,0.00,,,0.00,0.000000,,2013-04-01 16:23:00,
2013-04-01 06:33:00,62.0,-32.0,-100.00,NNE,27,43.0,132.0,0,0.00,,,0.00,0.000000,,2013-04-01 16:33:00,
2013-04-01 06:42:00,62.0,-32.0,-100.00,NNE,27,43.0,132.0,0,0.00,,,0.00,0.000000,,2013-04-01 16:42:00,
2013-04-01 08:12:00,64.0,-31.0,-100.00,NW,319,25.0,57.0,0,-99.99,,,0.00,39.000000,,2013-04-01 18:12:00,
2013-04-01 08:22:00,64.0,-31.0,-100.00,NW,319,25.0,57.0,0,-99.99,,,0.00,39.000000,,2013-04-01 18:22:00,
2013-04-01 08:32:00,64.0,-31.0,-100.00,NW,319,25.0,57.0,0,-99.99,,,0.00,39.000000,,2013-04-01 18:32:00,
2013-04-01 08:42:00,64.0,-31.0,-100.00,NW,319,25.0,57.0,0,-99.99,,,0.00,39.000000,,2013-04-01 18:42:00,
2013-04-01 08:51:00,64.0,-31.0,-100.00,NW,319,25.0,57.0,0,-99.99,,,0.00,39.000000,,2013-04-01 18:51:00,
2013-04-01 08:52:00,68.0,-28.0,-100.00,North,358,8.0,42.0,0,0.00,,,0.00,277.000000,,2013-04-01 18:52:00,
2013-04-01 09:12:00,68.0,-28.0,-100.00,North,358,8.0,42.0,0,0.00,,,0.00,277.000000,,2013-04-01 19:12:00,
2013-04-01 09:23:00,68.0,-28.0,-100.00,North,358,8.0,42.0,0,0.00,,,0.00,277.000000,,2013-04-01 19:23:00,
2013-04-01 09:32:00,68.0,-28.0,-100.00,North,358,8.0,42.0,0,0.00,,,0.00,277.000000,,2013-04-01 19:32:00,
2013-04-01 09:42:00,68.0,-28.0,-100.00,North,358,8.0,42.0,0,0.00,,,0.00,277.000000,,2013-04-01 19:42:00,
2013-04-01 10:22:00,69.0,-28.0,-100.00,NNE,23,7.0,40.0,0,0.00,,,0.00,578.000000,,2013-04-01 20:22:00,
2013-04-01 10:32:00,69.0,-28.0,-100.00,NNE,23,7.0,40.0,0,0.00,,,0.00,578.000000,,2013-04-01 20:32:00,
2013-04-01 10:42:00,69.0,-28.0,-100.00,NNE,23,7.0,40.0,0,0.00,,,0.00,578.000000,,2013-04-01 20:42:00,
2013-04-01 10:51:00,69.0,-28.0,-100.00,NNE,23,7.0,40.0,0,0.00,,,0.00,578.000000,,2013-04-01 20:51:00,
2013-04-01 10:52:00,70.0,-27.0,-100.00,North,8,7.0,31.0,0,0.00,,,0.00,856.000000,,2013-04-01 20:52:00,
2013-04-01 11:22:00,70.0,-27.0,-100.00,North,8,7.0,31.0,0,0.00,,,0.00,856.000000,,2013-04-01 21:22:00,
2013-04-01 11:32:00,70.0,-27.0,-100.00,North,8,7.0,31.0,0,0.00,,,0.00,856.000000,,2013-04-01 21:32:00,
2013-04-01 11:43:00,70.0,-27.0,-100.00,North,8,7.0,31.0,0,0.00,,,0.00,856.000000,,2013-04-01 21:43:00,
2013-04-01 11:52:00,72.0,-26.0,-100.00,NNW,329,7.0,40.0,0,0.00,,,0.00,1070.000000,,2013-04-01 21:52:00,
2013-04-01 12:12:00,72.0,-26.0,-100.00,NNW,329,7.0,40.0,0,0.00,,,0.00,1070.000000,,2013-04-01 22:12:00,
2013-04-01 12:22:00,72.0,-26.0,-100.00,NNW,329,7.0,40.0,0,0.00,,,0.00,1070.000000,,2013-04-01 22:22:00,
2013-04-01 12:33:00,72.0,-26.0,-100.00,NNW,329,7.0,40.0,0,0.00,,,0.00,1070.000000,,2013-04-01 22:33:00,
2013-04-01 12:42:00,72.0,-26.0,-100.00,NNW,329,7.0,40.0,0,0.00,,,0.00,1070.000000,,2013-04-01 22:42:00,
2013-04-01 12:52:00,74.0,-25.0,-100.00,NW,323,7.0,27.0,0,0.00,,,0.00,1178.000000,,2013-04-01 22:52:00,
2013-04-01 13:22:00,74.0,-25.0,-100.00,NW,323,7.0,27.0,0,0.00,,,0.00,1178.000000,,2013-04-01 23:22:00,
2013-04-01 13:32:00,74.0,-25.0,-100.00,NW,323,7.0,27.0,0,0.00,,,0.00,1178.000000,,2013-04-01 23:32:00,
2013-04-01 13:42:00,74.0,-25.0,-100.00,NW,323,7.0,27.0,0,0.00,,,0.00,1178.000000,,2013-04-01 23:42:00,
2013-04-01 13:52:00,74.0,-25.0,-100.00,NW,318,9.0,30.0,0,0.00,,,0.00,1236.000000,,2013-04-01 23:52:00,
2013-04-01 14:12:00,74.0,-25.0,-100.00,NW,318,9.0,30.0,0,0.00,,,0.00,1236.000000,,2013-04-02 00:12:00,
2013-04-01 14:22:00,74.0,-25.0,-100.00,NW,318,9.0,30.0,0,0.00,,,0.00,1236.000000,,2013-04-02 00:22:00,
2013-04-01 14:32:00,74.0,-25.0,-100.00,NW,318,9.0,30.0,0,0.00,,,0.00,1236.000000,,2013-04-02 00:32:00,
2013-04-01 14:42:00,74.0,-25.0,-100.00,NW,318,9.0,30.0,0,0.00,,,0.00,1236.000000,,2013-04-02 00:42:00,
2013-04-01 14:52:00,74.0,-25.0,-100.00,West,279,12.0,33.0,0,0.00,,,0.00,1190.000000,,2013-04-02 00:52:00,
2013-04-01 15:12:00,74.0,-25.0,-100.00,West,279,12.0,33.0,0,0.00,,,0.00,1190.000000,,2013-04-02 01:12:00,
2013-04-01 15:22:00,74.0,-25.0,-100.00,West,279,12.0,33.0,0,0.00,,,0.00,1190.000000,,2013-04-02 01:22:00,
2013-04-01 15:32:00,74.0,-25.0,-100.00,West,279,12.0,33.0,0,0.00,,,0.00,1190.000000,,2013-04-02 01:32:00,
2013-04-01 15:42:00,74.0,-25.0,-100.00,West,279,12.0,33.0,0,0.00,,,0.00,1190.000000,,2013-04-02 01:42:00,
2013-04-01 15:52:00,71.0,-26.0,-100.00,WNW,298,13.0,32.0,0,0.00,,,0.00,1010.000000,,2013-04-02 01:52:00,
2013-04-01 16:22:00,71.0,-26.0,-100.00,WNW,298,13.0,32.0,0,0.00,,,0.00,1010.000000,,2013-04-02 02:22:00,
2013-04-01 16:32:00,71.0,-26.0,-100.00,WNW,298,13.0,32.0,0,0.00,,,0.00,1010.000000,,2013-04-02 02:32:00,
2013-04-01 16:42:00,71.0,-26.0,-100.00,WNW,298,13.0,32.0,0,0.00,,,0.00,1010.000000,,2013-04-02 02:42:00,
2013-04-01 16:52:00,71.0,-26.0,-100.00,WNW,283,20.0,33.0,0,0.00,,,0.00,832.000000,,2013-04-02 02:52:00,
2013-04-01 17:12:00,71.0,-26.0,-100.00,WNW,283,20.0,33.0,0,0.00,,,0.00,832.000000,,2013-04-02 03:12:00,
2013-04-01 17:22:00,71.0,-26.0,-100.00,WNW,283,20.0,33.0,0,0.00,,,0.00,832.000000,,2013-04-02 03:22:00,
2013-04-01 17:33:00,71.0,-26.0,-100.00,WNW,283,20.0,33.0,0,0.00,,,0.00,832.000000,,2013-04-02 03:33:00,
2013-04-01 17:43:00,71.0,-26.0,-100.00,WNW,283,20.0,33.0,0,0.00,,,0.00,832.000000,,2013-04-02 03:43:00,
2013-04-01 17:52:00,69.0,-28.0,-100.00,WNW,303,17.0,36.0,0,0.00,,,0.00,513.000000,,2013-04-02 03:52:00,
2013-04-01 18:22:00,69.0,-28.0,-100.00,WNW,303,17.0,36.0,0,0.00,,,0.00,513.000000,,2013-04-02 04:22:00,
2013-04-01 18:32:00,69.0,-28.0,-100.00,WNW,303,17.0,36.0,0,0.00,,,0.00,513.000000,,2013-04-02 04:32:00,
2013-04-01 18:42:00,69.0,-28.0,-100.00,WNW,303,17.0,36.0,0,0.00,,,0.00,513.000000,,2013-04-02 04:42:00,
2013-04-01 18:52:00,67.0,-29.0,-100.00,NW,317,10.0,27.0,0,0.00,,,0.00,128.000000,,2013-04-02 04:52:00,
2013-04-01 19:22:00,67.0,-29.0,-100.00,NW,317,10.0,27.0,0,0.00,,,0.00,128.000000,,2013-04-02 05:22:00,
2013-04-01 19:32:00,67.0,-29.0,-100.00,NW,317,10.0,27.0,0,0.00,,,0.00,128.000000,,2013-04-02 05:32:00,
2013-04-01 19:42:00,67.0,-29.0,-100.00,NW,317,10.0,27.0,0,0.00,,,0.00,128.000000,,2013-04-02 05:42:00,
2013-04-01 19:52:00,67.0,-29.0,-100.00,North,6,17.0,56.0,0,0.00,,,-99.99,29.000000,,2013-04-02 05:52:00,
2013-04-01 20:12:00,67.0,-29.0,-100.00,North,6,17.0,56.0,0,0.00,,,-99.99,29.000000,,2013-04-02 06:12:00,
2013-04-01 20:22:00,67.0,-29.0,-100.00,North,6,17.0,56.0,0,0.00,,,-99.99,29.000000,,2013-04-02 06:22:00,
2013-04-01 20:32:00,67.0,-29.0,-100.00,North,6,17.0,56.0,0,0.00,,,-99.99,29.000000,,2013-04-02 06:32:00,
2013-04-01 20:42:00,67.0,-29.0,-100.00,North,6,17.0,56.0,0,0.00,,,-99.99,29.000000,,2013-04-02 06:42:00,
2013-04-01 20:52:00,66.0,-29.0,-100.00,NNE,13,28.0,54.0,0,0.00,,,0.00,0.000000,,2013-04-02 06:52:00,
2013-04-01 21:12:00,66.0,-29.0,-100.00,NNE,13,28.0,54.0,0,0.00,,,0.00,0.000000,,2013-04-02 07:12:00,
2013-04-01 21:22:00,66.0,-29.0,-100.00,NNE,13,28.0,54.0,0,0.00,,,0.00,0.000000,,2013-04-02 07:22:00,
2013-04-01 21:32:00,66.0,-29.0,-100.00,NNE,13,28.0,54.0,0,0.00,,,0.00,0.000000,,2013-04-02 07:32:00,
2013-04-01 21:42:00,66.0,-29.0,-100.00,NNE,13,28.0,54.0,0,0.00,,,0.00,0.000000,,2013-04-02 07:42:00,
2013-04-01 21:52:00,65.0,-30.0,-100.00,SE,127,29.0,56.0,0,0.00,,,0.00,0.000000,,2013-04-02 07:52:00,
2013-04-01 22:22:00,65.0,-30.0,-100.00,SE,127,29.0,56.0,0,0.00,,,0.00,0.000000,,2013-04-02 08:22:00,
2013-04-01 22:32:00,65.0,-30.0,-100.00,SE,127,29.0,56.0,0,0.00,,,0.00,0.000000,,2013-04-02 08:32:00,
2013-04-01 22:42:00,65.0,-30.0,-100.00,SE,127,29.0,56.0,0,0.00,,,0.00,0.000000,,2013-04-02 08:42:00,
2013-04-01 22:52:00,65.0,-30.0,-100.00,ENE,78,23.0,39.0,0,0.00,,,0.00,0.000000,,2013-04-02 08:52:00,
2013-04-01 23:22:00,65.0,-30.0,-100.00,ENE,78,23.0,39.0,0,0.00,,,0.00,0.000000,,2013-04-02 09:22:00,
2013-04-01 23:32:00,65.0,-30.0,-100.00,ENE,78,23.0,39.0,0,0.00,,,0.00,0.000000,,2013-04-02 09:32:00,
2013-04-01 23:42:00,65.0,-30.0,-100.00,ENE,78,23.0,39.0,0,0.00,,,0.00,0.000000,,2013-04-02 09:42:00,
2013-04-01 23:52:00,65.0,-30.0,-100.00,SW,233,14.0,54.0,0,0.00,,,0.00,0.000000,,2013-04-02 09:52:00,